Time;durP1;ratioP1;P1;durP2;ratioP2;P2;SDS_P1;SDS_P2;PMS_P1;PMS_P2;Temp;Humidity;BMP_temperature;BMP_pressure;BME280_temperature;BME280_humidity;BME280_pressure;Samples;Min_cycle;Max_cycle;Signal;HPM_P1;HPM_P2
2022/11/08 00:02:20;;;;;;;25.75;7.28;;;;;;;13.17;100.00;98241.06;5075450;28;20346;-91
2022/11/08 00:04:47;;;;;;;33.90;8.88;;;;;;;12.97;100.00;98229.69;5067036;28;20049;-89
2022/11/08 00:15:37;;;;;;;36.63;8.13;;;;;;;13.16;100.00;98244.66;5079584;28;20056;-91
2022/11/08 00:18:06;;;;;;;38.63;9.77;;;;;;;13.03;100.00;98221.25;5070962;28;20459;-91
2022/11/08 00:20:33;;;;;;;33.28;8.27;;;;;;;13.11;100.00;98255.56;5065665;28;20044;-91
2022/11/08 00:23:00;;;;;;;34.95;8.23;;;;;;;13.03;100.00;98234.38;5074315;28;20054;-91
2022/11/08 00:25:27;;;;;;;40.25;9.07;;;;;;;13.09;100.00;98250.44;5074468;28;20059;-91
2022/11/08 00:27:54;;;;;;;34.42;8.00;;;;;;;13.18;100.00;98256.69;5074186;28;20070;-91
2022/11/08 00:30:20;;;;;;;33.22;7.88;;;;;;;13.02;100.00;98230.94;5070068;28;20518;-90
2022/11/08 00:32:47;;;;;;;40.58;9.20;;;;;;;12.82;100.00;98189.81;5072610;28;20685;-90
2022/11/08 00:35:14;;;;;;;38.47;8.63;;;;;;;13.05;100.00;98241.19;5070843;28;20053;-91
2022/11/08 00:37:41;;;;;;;41.92;8.50;;;;;;;12.87;100.00;98212.09;5069248;28;20060;-90
2022/11/08 00:40:09;;;;;;;45.15;10.00;;;;;;;13.09;100.00;98239.13;5073407;28;20048;-91
2022/11/08 00:42:35;;;;;;;36.45;7.93;;;;;;;12.69;100.00;98203.19;5075549;28;20048;-89
2022/11/08 00:45:02;;;;;;;39.03;9.20;;;;;;;13.04;100.00;98212.41;5072893;28;20040;-90
2022/11/08 00:47:29;;;;;;;45.05;8.07;;;;;;;12.98;100.00;98205.91;5073301;28;20044;-91
2022/11/08 00:49:56;;;;;;;40.88;9.25;;;;;;;12.96;100.00;98180.72;5068568;28;20080;-90
2022/11/08 00:52:23;;;;;;;40.55;10.82;;;;;;;12.82;100.00;98189.81;5058682;28;20477;-89
2022/11/08 00:54:50;;;;;;;39.42;8.95;;;;;;;12.81;100.00;98170.63;5068630;28;20055;-90
2022/11/08 00:57:16;;;;;;;39.90;9.25;;;;;;;13.14;100.00;98204.53;5072853;28;20051;-89
2022/11/08 00:59:43;;;;;;;38.45;8.45;;;;;;;13.03;100.00;98202.88;5065199;28;20045;-89
2022/11/08 01:02:10;;;;;;;51.10;9.52;;;;;;;12.88;100.00;98174.34;5072449;28;20045;-90
2022/11/08 01:04:37;;;;;;;38.90;7.55;;;;;;;12.73;100.00;98146.84;5075149;28;20056;-89
2022/11/08 01:07:03;;;;;;;35.70;8.63;;;;;;;12.98;100.00;98184.91;5076182;28;20478;-91
2022/11/08 01:09:30;;;;;;;44.53;10.50;;;;;;;13.02;100.00;98188.09;5074215;28;20431;-90
2022/11/08 01:11:57;;;;;;;43.13;9.98;;;;;;;12.91;100.00;98162.78;5072848;28;20056;-91
2022/11/08 01:14:24;;;;;;;32.97;8.70;;;;;;;12.85;100.00;98171.16;5072786;28;20403;-90
2022/11/08 01:16:51;;;;;;;38.95;9.38;;;;;;;12.83;100.00;98170.47;5076639;28;20075;-89
2022/11/08 01:19:18;;;;;;;37.22;9.13;;;;;;;13.00;100.00;98180.34;5074736;28;20072;-89
2022/11/08 01:21:45;;;;;;;36.88;8.02;;;;;;;12.85;100.00;98173.78;5073415;28;20048;-89
2022/11/08 01:24:11;;;;;;;31.67;7.50;;;;;;;12.71;100.00;98161.88;5070772;28;20060;-89
2022/11/08 01:26:38;;;;;;;42.75;9.50;;;;;;;12.65;100.00;98163.25;5072705;28;20048;-89
2022/11/08 01:29:05;;;;;;;32.25;7.30;;;;;;;13.13;100.00;98174.81;5068524;28;20049;-89
2022/11/08 01:31:32;;;;;;;37.63;9.65;;;;;;;12.77;100.00;98156.09;5072014;28;20044;-90
2022/11/08 01:33:59;;;;;;;37.03;9.27;;;;;;;12.71;100.00;98112.84;5071772;28;20048;-90
2022/11/08 01:36:28;;;;;;;45.92;10.20;;;;;;;12.96;100.00;98152.69;5058030;28;20045;-89
2022/11/08 01:38:55;;;;;;;43.33;10.55;;;;;;;12.87;100.00;98141.19;5068382;28;20049;-89
2022/11/08 01:41:24;;;;;;;35.55;10.27;;;;;;;12.71;100.00;98133.84;5057717;28;20395;-88
2022/11/08 01:43:54;;;;;;;45.05;10.13;;;;;;;12.55;100.00;98081.00;5074677;28;20055;-88
2022/11/08 01:46:36;;;;;;;45.13;10.50;;;;;;;12.81;100.00;98131.22;5075502;28;20406;-90
2022/11/08 01:49:21;;;;;;;34.60;9.27;;;;;;;13.00;100.00;98133.06;5058576;28;20055;-89
2022/11/08 01:51:59;;;;;;;45.60;9.75;;;;;;;12.85;100.00;98108.16;5070895;28;20044;-87
2022/11/08 01:54:36;;;;;;;55.70;9.95;;;;;;;12.77;100.00;98079.97;5071849;28;20051;-88
2022/11/08 01:57:07;;;;;;;51.47;12.18;;;;;;;12.67;100.00;98072.06;5073911;28;20482;-90
2022/11/08 01:59:38;;;;;;;53.05;9.68;;;;;;;12.82;100.00;98076.91;5064781;28;20056;-89
2022/11/08 02:02:07;;;;;;;50.53;12.27;;;;;;;13.11;100.00;98111.09;5074658;28;20066;-89
2022/11/08 02:04:35;;;;;;;41.60;8.75;;;;;;;13.07;100.00;98115.78;5063884;28;20132;-88
2022/11/08 02:07:05;;;;;;;51.42;10.45;;;;;;;12.60;100.00;98038.63;5074916;28;20063;-88
2022/11/08 02:09:35;;;;;;;51.88;10.57;;;;;;;12.83;100.00;98100.41;5074144;28;20458;-88
2022/11/08 02:12:02;;;;;;;43.92;10.73;;;;;;;12.56;100.00;98034.63;5076191;28;20051;-88
2022/11/08 02:14:29;;;;;;;51.88;9.02;;;;;;;12.76;100.00;98040.72;5075431;28;20409;-88
2022/11/08 02:16:56;;;;;;;56.58;9.30;;;;;;;12.82;100.00;98053.28;5066817;28;20467;-89
2022/11/08 02:19:39;;;;;;;42.17;8.57;;;;;;;13.05;100.00;98078.31;5061746;28;20060;-89
2022/11/08 02:22:15;;;;;;;37.60;10.13;;;;;;;12.66;100.00;98052.03;5075865;28;20055;-90
2022/11/08 02:24:42;;;;;;;52.05;9.57;;;;;;;12.80;100.00;98027.19;5075185;28;20411;-90
2022/11/08 02:27:11;;;;;;;49.78;8.98;;;;;;;13.00;100.00;98053.44;5075581;28;20451;-89
2022/11/08 02:29:37;;;;;;;56.28;10.95;;;;;;;12.72;100.00;98025.22;5074953;28;20107;-89
2022/11/08 02:32:05;;;;;;;50.53;11.82;;;;;;;12.89;100.00;98041.25;5070137;28;20045;-88
2022/11/08 02:34:54;;;;;;;44.88;9.25;;;;;;;13.05;100.00;98025.78;5065642;28;20402;-89
2022/11/08 02:37:24;;;;;;;34.55;8.63;;;;;;;13.01;100.00;97998.13;5071494;28;20044;-89
2022/11/08 02:39:51;;;;;;;34.53;7.60;;;;;;;13.02;100.00;97988.47;5069009;28;20098;-89
2022/11/08 02:42:19;;;;;;;48.92;10.23;;;;;;;12.72;100.00;97956.16;5074968;28;20063;-89
2022/11/08 02:44:47;;;;;;;44.53;9.68;;;;;;;12.56;100.00;97971.63;5069526;28;20065;-88
2022/11/08 02:47:14;;;;;;;42.50;10.30;;;;;;;12.81;100.00;97978.13;5066567;28;20052;-88
2022/11/08 02:49:42;;;;;;;51.08;10.25;;;;;;;12.49;100.00;97935.44;5061992;28;20784;-89
2022/11/08 02:52:08;;;;;;;43.88;8.27;;;;;;;12.87;100.00;97974.91;5074489;28;20719;-89
2022/11/08 02:54:35;;;;;;;46.70;8.80;;;;;;;12.72;100.00;97970.09;5075425;28;20049;-89
2022/11/08 02:57:02;;;;;;;40.42;7.88;;;;;;;12.87;100.00;97960.00;5075575;28;20062;-89
2022/11/08 02:59:29;;;;;;;51.28;9.55;;;;;;;12.80;100.00;97952.81;5074483;28;20070;-89
2022/11/08 03:01:55;;;;;;;45.03;8.82;;;;;;;12.87;100.00;97959.16;5057565;28;20052;-89
2022/11/08 03:04:22;;;;;;;41.10;9.50;;;;;;;12.96;100.00;97947.84;5082285;28;20044;-89
2022/11/08 03:06:49;;;;;;;34.97;8.60;;;;;;;12.78;100.00;97937.19;5071777;28;20059;-89
2022/11/08 03:09:16;;;;;;;54.83;10.40;;;;;;;12.79;100.00;97927.53;5064775;28;20057;-89
2022/11/08 03:11:43;;;;;;;41.58;8.25;;;;;;;12.99;100.00;97957.22;5063419;28;20053;-89
2022/11/08 03:14:09;;;;;;;52.42;9.65;;;;;;;12.72;100.00;97938.59;5057057;28;20053;-89
2022/11/08 03:16:36;;;;;;;41.58;9.30;;;;;;;12.82;100.00;97948.25;5075289;28;20060;-89
2022/11/08 03:19:03;;;;;;;36.28;9.35;;;;;;;12.85;100.00;97933.03;5077485;28;20049;-89
2022/11/08 03:21:30;;;;;;;41.90;9.85;;;;;;;12.70;100.00;97923.97;5075273;28;20048;-89
2022/11/08 03:23:57;;;;;;;42.88;9.27;;;;;;;12.52;100.00;97897.59;5070034;28;20426;-89
2022/11/08 03:26:23;;;;;;;42.47;10.05;;;;;;;12.85;100.00;97929.59;5069354;28;20048;-88
2022/11/08 03:28:50;;;;;;;39.25;10.30;;;;;;;12.91;100.00;97947.44;5073144;28;20639;-88
2022/11/08 03:31:17;;;;;;;37.28;9.05;;;;;;;12.96;100.00;97952.25;5075431;28;20067;-87
2022/11/08 03:33:43;;;;;;;47.30;9.73;;;;;;;12.88;100.00;97921.44;5075076;28;20048;-88
2022/11/08 03:36:10;;;;;;;36.60;8.73;;;;;;;12.88;100.00;97903.88;5071762;28;20059;-88
2022/11/08 03:38:37;;;;;;;44.50;8.57;;;;;;;12.98;100.00;97903.88;5055429;28;20049;-88
2022/11/08 03:41:04;;;;;;;33.75;7.90;;;;;;;13.15;100.00;97923.31;5075236;28;20054;-88
2022/11/08 03:43:31;;;;;;;34.05;7.82;;;;;;;13.11;100.00;97921.94;5076923;28;20498;-88
2022/11/08 03:45:57;;;;;;;41.38;7.75;;;;;;;12.83;100.00;97908.72;5062691;28;20105;-89
2022/11/08 03:48:24;;;;;;;42.40;10.38;;;;;;;12.97;100.00;97951.28;5072924;28;20052;-88
2022/11/08 03:50:51;;;;;;;40.38;9.20;;;;;;;12.79;100.00;97914.41;5068513;28;20049;-89
2022/11/08 03:53:18;;;;;;;31.88;7.57;;;;;;;13.15;100.00;97951.38;5071401;28;20052;-89
2022/11/08 03:55:44;;;;;;;34.25;8.63;;;;;;;12.92;100.00;97917.56;5069612;28;20383;-89
2022/11/08 03:58:11;;;;;;;35.40;7.45;;;;;;;12.88;100.00;97903.88;5071838;28;20063;-89
2022/11/08 04:00:38;;;;;;;41.63;8.73;;;;;;;12.88;100.00;97922.25;5073414;28;20218;-89
2022/11/08 04:03:05;;;;;;;31.60;6.80;;;;;;;12.62;100.00;97885.25;5076035;28;20099;-89
2022/11/08 04:05:32;;;;;;;40.70;8.15;;;;;;;13.02;100.00;97949.88;5070306;28;20054;-90
2022/11/08 04:08:00;;;;;;;27.25;7.00;;;;;;;13.01;100.00;97942.16;5073055;28;20139;-89
2022/11/08 04:10:27;;;;;;;33.88;7.55;;;;;;;12.81;100.00;97925.59;5068358;28;20058;-90
2022/11/08 04:15:41;;;;;;;33.38;7.60;;;;;;;12.87;100.00;97919.78;5065246;28;20048;-89
2022/11/08 04:23:39;;;;;;;26.10;6.07;;;;;;;12.89;100.00;97900.28;5066191;28;20060;-89
2022/11/08 04:26:10;;;;;;;27.33;5.47;;;;;;;12.89;100.00;97921.31;5060905;28;20048;-89
2022/11/08 04:28:38;;;;;;;32.33;6.82;;;;;;;12.72;100.00;97924.66;5065851;28;20110;-89
2022/11/08 04:31:17;;;;;;;27.95;6.03;;;;;;;13.14;100.00;97953.19;5070731;28;20049;-89
2022/11/08 04:33:44;;;;;;;27.67;6.15;;;;;;;12.63;100.00;97888.75;5065140;28;20463;-89
2022/11/08 04:36:13;;;;;;;26.73;5.97;;;;;;;13.16;100.00;97953.06;5069686;28;20101;-88
2022/11/08 04:38:40;;;;;;;22.40;5.65;;;;;;;12.91;100.00;97950.06;5070954;28;20055;-88
2022/11/08 04:41:13;;;;;;;22.10;5.10;;;;;;;13.04;100.00;97947.94;5070867;28;20052;-89
2022/11/08 04:43:40;;;;;;;20.70;4.90;;;;;;;12.86;100.00;97915.50;5056849;28;20057;-88
2022/11/08 04:46:18;;;;;;;20.25;4.28;;;;;;;12.82;100.00;97907.09;5056006;28;20063;-88
2022/11/08 04:48:46;;;;;;;18.70;3.60;;;;;;;13.03;100.00;97963.84;5066544;28;20103;-90
2022/11/08 04:51:16;;;;;;;16.25;3.90;;;;;;;13.14;100.00;97960.22;5076613;28;20044;-86
2022/11/08 04:53:43;;;;;;;18.13;5.00;;;;;;;12.75;100.00;97924.38;5071526;28;20057;-88
2022/11/08 04:56:14;;;;;;;22.23;3.22;;;;;;;12.91;100.00;97973.69;5070817;28;20056;-88
2022/11/08 04:58:44;;;;;;;14.35;3.72;;;;;;;12.72;100.00;97967.47;5066833;28;20091;-89
2022/11/08 05:01:12;;;;;;;13.77;2.40;;;;;;;12.56;100.00;97913.88;5064542;28;20123;-88
2022/11/08 05:03:39;;;;;;;17.48;3.00;;;;;;;12.70;100.00;97984.34;5060661;28;20072;-89
2022/11/08 05:06:10;;;;;;;10.98;2.08;;;;;;;12.54;100.00;97975.22;5065596;28;20052;-88
2022/11/08 05:08:37;;;;;;;10.93;2.00;;;;;;;12.24;100.00;97936.81;5062734;28;20056;-89
2022/11/08 05:11:15;;;;;;;15.30;1.90;;;;;;;12.47;100.00;97970.66;5062765;28;20047;-88
2022/11/08 05:13:45;;;;;;;10.93;1.50;;;;;;;12.44;100.00;97963.88;5066123;28;20106;-89
2022/11/08 05:16:34;;;;;;;5.35;1.35;;;;;;;12.33;100.00;97962.22;5087739;28;20068;-88
2022/11/08 05:19:01;;;;;;;4.22;1.58;;;;;;;12.12;100.00;97951.81;5067289;28;20060;-88
2022/11/08 05:24:15;;;;;;;6.80;1.33;;;;;;;12.03;100.00;97978.03;5068406;28;20529;-89
2022/11/08 05:26:45;;;;;;;6.85;1.40;;;;;;;11.88;100.00;97970.53;5068281;28;20107;-88
2022/11/08 05:29:13;;;;;;;5.85;1.45;;;;;;;12.10;100.00;97966.03;5073641;28;20052;-88
2022/11/08 05:31:40;;;;;;;7.22;1.48;;;;;;;11.68;100.00;97916.38;5068723;28;20445;-87
2022/11/08 05:34:07;;;;;;;8.02;1.48;;;;;;;11.50;100.00;97908.31;5064979;28;20075;-87
2022/11/08 05:36:34;;;;;;;3.25;1.00;;;;;;;11.23;100.00;97880.91;5061740;28;20048;-86
2022/11/08 05:39:01;;;;;;;4.78;1.10;;;;;;;11.46;100.00;97920.03;5067620;28;20068;-89
2022/11/08 05:41:28;;;;;;;7.35;1.17;;;;;;;11.49;100.00;97910.13;5069216;28;20124;-90
2022/11/08 05:43:55;;;;;;;6.40;1.25;;;;;;;11.54;100.00;97931.50;5069563;28;20072;-90
2022/11/08 05:46:22;;;;;;;4.95;1.23;;;;;;;11.45;100.00;97916.56;5070202;28;20059;-90
2022/11/08 05:48:50;;;;;;;3.85;1.10;;;;;;;11.40;100.00;97918.75;5075468;28;20559;-90
2022/11/08 05:51:18;;;;;;;5.55;1.20;;;;;;;11.17;100.00;97870.94;5076616;28;20045;-89
2022/11/08 05:53:46;;;;;;;4.38;1.30;;;;;;;11.35;100.00;97906.06;5076371;28;20521;-90
2022/11/08 05:56:13;;;;;;;2.65;1.00;;;;;;;11.00;100.00;97862.75;5077067;28;20052;-89
2022/11/08 05:58:39;;;;;;;5.43;1.52;;;;;;;10.95;100.00;97861.50;5074175;28;20502;-86
2022/11/08 06:01:12;;;;;;;7.78;1.50;;;;;;;11.36;100.00;97912.94;5072533;28;20057;-86
2022/11/08 06:03:39;;;;;;;5.95;1.45;;;;;;;11.24;100.00;97890.41;5075687;28;20063;-90
2022/11/08 06:06:09;;;;;;;4.95;1.17;;;;;;;11.44;100.00;97928.03;5069691;28;20110;-88
2022/11/08 06:08:37;;;;;;;6.72;2.13;;;;;;;11.26;100.00;97947.91;5068045;28;20054;-88
2022/11/08 06:11:06;;;;;;;6.60;1.40;;;;;;;11.55;100.00;97969.03;5070543;28;20063;-83
2022/11/08 06:13:34;;;;;;;5.35;1.30;;;;;;;11.34;100.00;97979.53;5066785;28;20060;-86
2022/11/08 06:16:03;;;;;;;3.45;1.20;;;;;;;11.51;100.00;98012.16;5071542;28;20048;-86
2022/11/08 06:18:30;;;;;;;4.70;1.20;;;;;;;11.15;100.00;98001.19;5069754;28;20059;-89
2022/11/08 06:20:58;;;;;;;6.32;1.40;;;;;;;11.34;100.00;98014.41;5068873;28;20150;-86
2022/11/08 06:23:25;;;;;;;6.15;1.27;;;;;;;10.92;100.00;97979.56;5075768;28;20098;-90
2022/11/08 06:25:52;;;;;;;4.68;1.25;;;;;;;11.33;100.00;98052.06;5075419;28;20048;-90
2022/11/08 06:28:19;;;;;;;9.20;1.40;;;;;;;11.02;100.00;98010.06;5075563;28;20064;-89
2022/11/08 06:30:46;;;;;;;5.13;1.25;;;;;;;11.08;100.00;97995.63;5070527;28;20450;-86
2022/11/08 06:33:14;;;;;;;7.18;1.50;;;;;;;11.01;100.00;97994.50;5069767;28;20106;-87
2022/11/08 06:35:41;;;;;;;5.07;1.20;;;;;;;11.29;100.00;98031.47;5065377;28;20045;-87
2022/11/08 06:38:08;;;;;;;4.97;1.55;;;;;;;11.25;100.00;98023.03;5074596;28;20049;-87
2022/11/08 06:40:37;;;;;;;6.30;1.45;;;;;;;11.12;100.00;97999.69;5068950;28;20057;-86
2022/11/08 06:43:04;;;;;;;5.25;1.40;;;;;;;10.93;100.00;98002.16;5071679;28;20041;-87
2022/11/08 06:45:32;;;;;;;6.30;1.52;;;;;;;10.95;100.00;98006.31;5070836;28;20052;-90
2022/11/08 06:48:00;;;;;;;7.88;1.38;;;;;;;10.59;100.00;97991.84;5073966;28;20056;-88
2022/11/08 06:50:29;;;;;;;6.35;1.13;;;;;;;11.01;100.00;98044.22;5073477;28;20474;-87
2022/11/08 06:53:06;;;;;;;3.30;1.08;;;;;;;10.82;100.00;98016.13;5063262;28;20123;-87
2022/11/08 06:55:34;;;;;;;5.15;1.85;;;;;;;10.90;100.00;98042.50;5071686;28;20067;-88
2022/11/08 06:58:02;;;;;;;5.03;1.52;;;;;;;10.87;100.00;98042.78;5067506;28;20067;-86
2022/11/08 07:00:30;;;;;;;5.72;1.30;;;;;;;10.79;100.00;98025.06;5065789;28;20451;-87
2022/11/08 07:03:00;;;;;;;8.82;1.30;;;;;;;10.67;100.00;98017.38;5066981;28;20044;-86
2022/11/08 07:05:29;;;;;;;5.10;1.83;;;;;;;10.76;100.00;98027.09;5059534;28;20048;-86
2022/11/08 07:07:57;;;;;;;5.93;1.35;;;;;;;10.35;100.00;97981.56;5064166;28;20113;-87
2022/11/08 07:10:27;;;;;;;5.05;1.40;;;;;;;10.39;100.00;98002.16;5069282;28;20063;-87
2022/11/08 07:13:05;;;;;;;7.32;1.30;;;;;;;10.90;100.00;98066.06;5055555;28;20071;-87
2022/11/08 07:15:34;;;;;;;4.13;1.50;;;;;;;10.83;100.00;98086.66;5067638;28;20490;-85
2022/11/08 07:18:02;;;;;;;4.15;1.13;;;;;;;11.05;100.00;98100.66;5068627;28;20165;-86
2022/11/08 07:20:29;;;;;;;5.00;1.80;;;;;;;10.86;100.00;98101.31;5067572;28;20124;-85
2022/11/08 07:22:56;;;;;;;2.92;1.08;;;;;;;10.94;100.00;98121.63;5062300;28;20446;-86
2022/11/08 07:25:25;;;;;;;6.85;1.35;;;;;;;10.96;100.00;98102.22;5063504;28;20045;-85
2022/11/08 07:27:56;;;;;;;3.97;1.20;;;;;;;10.81;100.00;98116.53;5064736;28;20052;-85
2022/11/08 07:30:23;;;;;;;3.22;1.23;;;;;;;10.76;100.00;98100.38;5065329;28;20098;-85
2022/11/08 07:32:51;;;;;;;8.10;1.60;;;;;;;10.73;100.00;98118.94;5063095;28;20048;-85
2022/11/08 07:35:18;;;;;;;4.00;1.33;;;;;;;10.59;100.00;98102.56;5066798;28;20153;-87
2022/11/08 07:37:44;;;;;;;4.47;1.20;;;;;;;10.66;100.00;98120.38;5070685;28;20098;-87
2022/11/08 07:40:12;;;;;;;9.07;1.85;;;;;;;10.40;100.00;98082.25;5066572;28;20064;-86
2022/11/08 07:42:40;;;;;;;5.10;1.30;;;;;;;10.68;100.00;98119.31;5055820;28;20044;-86
2022/11/08 07:45:27;;;;;;;5.18;1.70;;;;;;;10.58;100.00;98123.63;5071582;28;20408;-87
2022/11/08 07:48:01;;;;;;;6.90;1.17;;;;;;;10.25;100.00;98071.19;5070870;28;20048;-86
2022/11/08 07:50:36;;;;;;;10.95;1.77;;;;;;;10.45;100.00;98102.84;5059180;28;20049;-87
2022/11/08 07:53:03;;;;;;;4.65;1.30;;;;;;;10.59;100.00;98117.44;5084193;28;20041;-87
2022/11/08 07:55:29;;;;;;;3.97;1.20;;;;;;;10.54;100.00;98103.88;5063592;28;20159;-87
2022/11/08 07:58:00;;;;;;;3.95;1.13;;;;;;;10.57;100.00;98103.63;5073255;28;20103;-88
2022/11/08 08:00:29;;;;;;;7.22;1.42;;;;;;;10.75;100.00;98136.19;5067892;28;20059;-87
2022/11/08 08:03:00;;;;;;;3.92;1.10;;;;;;;10.61;100.00;98126.81;5054914;28;20433;-87
2022/11/08 08:05:29;;;;;;;6.10;1.60;;;;;;;10.63;100.00;98147.63;5062963;28;20677;-87
2022/11/08 08:07:57;;;;;;;4.00;1.23;;;;;;;10.58;100.00;98165.47;5066582;28;20060;-87
2022/11/08 08:10:26;;;;;;;5.20;1.73;;;;;;;10.42;100.00;98140.50;5066610;28;20474;-87
2022/11/08 08:12:55;;;;;;;5.03;1.40;;;;;;;10.53;100.00;98159.78;5065416;28;20051;-87
2022/11/08 08:15:22;;;;;;;3.30;1.33;;;;;;;10.30;100.00;98141.44;5056845;28;20059;-86
2022/11/08 08:17:49;;;;;;;3.60;1.10;;;;;;;10.58;100.00;98128.84;5076494;28;20478;-86
2022/11/08 08:20:16;;;;;;;3.25;1.20;;;;;;;11.25;100.00;98169.72;5056347;28;20402;-86
2022/11/08 08:22:44;;;;;;;8.70;1.42;;;;;;;11.53;100.00;98168.28;5070213;28;20041;-87
2022/11/08 08:25:11;;;;;;;5.03;1.30;;;;;;;11.42;100.00;98163.13;5068776;28;20575;-88
2022/11/08 08:27:38;;;;;;;4.38;1.30;;;;;;;11.69;100.00;98174.91;5064622;28;20071;-86
2022/11/08 08:30:06;;;;;;;6.97;1.40;;;;;;;11.30;100.00;98122.22;5082953;28;20048;-86
2022/11/08 08:32:34;;;;;;;7.78;1.95;;;;;;;11.58;100.00;98146.97;5070867;28;20055;-88
2022/11/08 08:35:01;;;;;;;7.72;1.45;;;;;;;11.89;100.00;98137.34;5063188;28;20095;-89
2022/11/08 08:37:27;;;;;;;6.95;1.73;;;;;;;11.48;100.00;98123.28;5061415;28;20055;-87
2022/11/08 08:39:54;;;;;;;5.55;1.55;;;;;;;11.82;100.00;98124.91;5066740;28;20049;-88
2022/11/08 08:42:21;;;;;;;6.68;1.52;;;;;;;11.96;100.00;98114.09;5066601;28;20105;-87
2022/11/08 08:44:48;;;;;;;3.38;1.30;;;;;;;11.89;100.00;98132.09;5065987;28;20045;-87
2022/11/08 08:47:14;;;;;;;6.78;1.77;;;;;;;11.92;100.00;98152.84;5064599;28;20071;-90
2022/11/08 08:49:41;;;;;;;10.63;1.95;;;;;;;11.41;100.00;98140.50;5056773;28;20061;-90
2022/11/08 08:52:08;;;;;;;7.75;1.80;;;;;;;11.29;100.00;98149.34;5071281;28;20053;-88
2022/11/08 08:54:35;;;;;;;6.60;1.70;;;;;;;11.35;100.00;98149.69;5067237;28;20045;-88
2022/11/08 08:57:01;;;;;;;8.10;1.70;;;;;;;11.33;100.00;98161.22;5059064;28;20056;-88
2022/11/08 08:59:28;;;;;;;7.65;1.98;;;;;;;11.58;100.00;98191.50;5068778;28;20056;-87
2022/11/08 09:02:15;;;;;;;7.63;1.60;;;;;;;11.66;100.00;98169.91;5064930;28;21285;-87
2022/11/08 09:04:42;;;;;;;9.63;2.33;;;;;;;11.87;100.00;98181.22;5059283;28;20626;-88
2022/11/08 09:07:09;;;;;;;9.57;2.10;;;;;;;11.54;100.00;98146.38;5065048;28;20102;-88
2022/11/08 09:09:36;;;;;;;9.30;2.20;;;;;;;11.85;100.00;98185.75;5070863;28;20052;-88
2022/11/08 09:12:03;;;;;;;7.93;1.98;;;;;;;11.71;100.00;98163.31;5067926;28;20045;-89
2022/11/08 09:14:30;;;;;;;10.10;2.75;;;;;;;11.44;100.00;98155.09;5067192;28;20502;-88
2022/11/08 09:16:56;;;;;;;10.30;1.80;;;;;;;11.18;100.00;98164.16;5071685;28;20044;-89
2022/11/08 09:19:24;;;;;;;9.95;1.95;;;;;;;11.40;100.00;98178.97;5071980;28;20055;-89
2022/11/08 09:21:51;;;;;;;10.25;3.10;;;;;;;11.50;100.00;98176.41;5072378;28;20048;-89
2022/11/08 09:24:17;;;;;;;11.65;2.63;;;;;;;11.44;100.00;98197.03;5067693;28;20053;-88
2022/11/08 09:26:44;;;;;;;6.97;1.65;;;;;;;11.46;100.00;98168.94;5054535;28;20061;-87
2022/11/08 09:29:11;;;;;;;9.60;2.40;;;;;;;11.31;100.00;98157.91;5051626;28;20068;-89
2022/11/08 09:31:38;;;;;;;8.75;2.10;;;;;;;11.18;100.00;98145.81;5065088;28;20509;-89
2022/11/08 09:34:05;;;;;;;8.18;2.20;;;;;;;11.27;100.00;98162.56;5072343;28;20398;-90
2022/11/08 09:36:32;;;;;;;8.15;2.03;;;;;;;11.41;100.00;98185.03;5070850;28;20053;-87
2022/11/08 09:38:58;;;;;;;8.63;2.30;;;;;;;11.35;100.00;98135.72;5070390;28;20564;-88
2022/11/08 09:41:40;;;;;;;14.50;3.22;;;;;;;11.48;100.00;98161.78;5067742;28;20045;-87
2022/11/08 09:44:26;;;;;;;14.65;2.78;;;;;;;11.68;100.00;98188.94;5056843;28;20055;-87
2022/11/08 09:46:57;;;;;;;13.55;2.63;;;;;;;11.53;100.00;98185.81;5061642;28;20053;-87
2022/11/08 09:49:43;;;;;;;10.15;2.28;;;;;;;11.84;100.00;98181.47;5069256;28;20045;-86
2022/11/08 09:52:20;;;;;;;11.25;2.97;;;;;;;11.75;100.00;98156.84;5070110;28;20051;-88
2022/11/08 09:54:49;;;;;;;15.73;3.28;;;;;;;11.85;100.00;98182.31;5050116;28;20052;-88
2022/11/08 09:57:23;;;;;;;17.58;2.70;;;;;;;11.90;100.00;98182.78;5063038;28;20473;-88
2022/11/08 09:59:57;;;;;;;18.17;2.72;;;;;;;12.01;100.00;98155.69;5070349;28;20044;-86
2022/11/08 10:02:26;;;;;;;12.82;2.80;;;;;;;12.12;100.00;98160.81;5061031;28;20040;-86
2022/11/08 10:05:11;;;;;;;9.07;2.45;;;;;;;12.24;100.00;98149.28;5064654;28;20128;-87
2022/11/08 10:07:53;;;;;;;8.82;2.10;;;;;;;12.21;100.00;98144.28;5075689;28;20094;-87
2022/11/08 10:10:38;;;;;;;10.88;2.50;;;;;;;12.26;100.00;98157.84;5064672;28;20044;-87
2022/11/08 10:13:42;;;;;;;17.30;3.42;;;;;;;12.66;100.00;98193.78;5074046;28;20071;-86
2022/11/08 10:16:09;;;;;;;10.70;3.17;;;;;;;12.89;100.00;98189.16;5075736;28;20110;-87
2022/11/08 10:18:50;;;;;;;15.20;3.10;;;;;;;12.83;100.00;98194.94;5061742;28;20385;-87
2022/11/08 10:21:42;;;;;;;11.07;2.33;;;;;;;13.00;100.00;98197.91;5073363;28;20053;-88
2022/11/08 10:24:20;;;;;;;22.10;2.95;;;;;;;13.04;100.00;98205.34;5074062;28;20040;-87
2022/11/08 10:26:51;;;;;;;14.77;3.15;;;;;;;12.68;100.00;98160.34;5075683;28;20680;-87
2022/11/08 10:29:39;;;;;;;12.30;2.85;;;;;;;13.11;100.00;98205.66;5073775;28;20045;-87
2022/11/08 10:32:23;;;;;;;10.40;2.78;;;;;;;13.17;100.00;98206.91;5074339;28;20474;-87
2022/11/08 10:34:56;;;;;;;20.13;3.13;;;;;;;13.17;100.00;98201.66;5070678;28;20045;-87
2022/11/08 10:37:24;;;;;;;19.45;4.25;;;;;;;13.09;100.00;98197.91;5057043;28;20057;-87
2022/11/08 10:40:01;;;;;;;17.48;3.78;;;;;;;13.05;100.00;98183.38;5067476;28;20548;-87
2022/11/08 10:42:38;;;;;;;17.55;2.90;;;;;;;13.09;100.00;98184.78;5070313;28;20053;-87
2022/11/08 10:45:05;;;;;;;15.93;3.25;;;;;;;13.03;100.00;98160.84;5064088;28;20049;-88
2022/11/08 10:47:32;;;;;;;14.15;2.60;;;;;;;13.23;100.00;98169.59;5072708;28;20044;-88
2022/11/08 10:49:59;;;;;;;21.88;3.95;;;;;;;13.27;100.00;98147.31;5072907;28;20071;-88
2022/11/08 10:52:41;;;;;;;21.05;3.90;;;;;;;13.30;100.00;98141.78;5074210;28;20083;-88
2022/11/08 10:55:22;;;;;;;19.42;3.08;;;;;;;13.47;100.00;98163.94;5064656;28;20049;-88
2022/11/08 10:57:48;;;;;;;23.50;4.72;;;;;;;13.03;100.00;98118.81;5070415;28;20044;-88
2022/11/08 11:00:21;;;;;;;21.58;3.65;;;;;;;13.26;100.00;98162.25;5068838;28;20052;-87
2022/11/08 11:02:54;;;;;;;22.90;4.13;;;;;;;13.26;100.00;98170.13;5084840;28;20053;-88
2022/11/08 11:05:34;;;;;;;17.05;4.30;;;;;;;12.79;100.00;98148.09;5073537;28;20052;-88
2022/11/08 11:08:12;;;;;;;17.38;3.63;;;;;;;13.07;100.00;98159.63;5073629;28;20055;-88
2022/11/08 11:10:47;;;;;;;23.13;4.35;;;;;;;12.91;100.00;98162.78;5072037;28;20055;-88
2022/11/08 11:13:21;;;;;;;19.65;4.35;;;;;;;13.25;100.00;98157.97;5068033;28;20380;-88
2022/11/08 11:16:02;;;;;;;23.00;4.72;;;;;;;13.32;100.00;98165.34;5053288;28;20487;-88
2022/11/08 11:18:34;;;;;;;19.15;3.72;;;;;;;13.33;100.00;98166.97;5059108;28;20052;-88
2022/11/08 11:21:12;;;;;;;23.55;4.47;;;;;;;13.28;100.00;98165.56;5073441;28;20060;-87
2022/11/08 11:23:46;;;;;;;22.65;4.03;;;;;;;12.84;100.00;98111.75;5068693;28;20053;-88
2022/11/08 11:26:50;;;;;;;28.98;5.95;;;;;;;13.06;100.00;98131.69;5053616;28;20487;-87
2022/11/08 11:29:37;;;;;;;23.95;4.28;;;;;;;13.13;100.00;98121.47;5048504;28;20056;-88
2022/11/08 11:32:21;;;;;;;18.85;3.20;;;;;;;13.24;100.00;98144.97;5072415;28;20052;-88
2022/11/08 11:35:00;;;;;;;20.55;3.75;;;;;;;13.33;100.00;98130.19;5072927;28;20056;-89
2022/11/08 11:37:29;;;;;;;17.52;4.47;;;;;;;13.43;100.00;98136.28;5054554;28;20045;-88
2022/11/08 11:40:06;;;;;;;20.58;3.78;;;;;;;13.31;100.00;98117.19;5063777;28;20048;-88
2022/11/08 11:42:57;;;;;;;14.13;3.42;;;;;;;13.43;100.00;98120.50;5073603;28;20104;-88
2022/11/08 11:45:31;;;;;;;19.95;3.88;;;;;;;13.44;100.00;98120.38;5074915;28;20056;-87
2022/11/08 11:48:03;;;;;;;13.88;3.08;;;;;;;13.59;100.00;98117.31;5073981;28;20067;-87
2022/11/08 11:50:33;;;;;;;15.63;3.72;;;;;;;13.59;100.00;98091.84;5071349;28;20044;-88
2022/11/08 11:53:03;;;;;;;18.65;3.72;;;;;;;13.65;100.00;98120.22;5072094;28;20045;-88